sensor_id;sensor_type;location;lat;lon;timestamp;P1;durP1;ratioP1;P2;durP2;ratioP2
37753;SDS011;23596;52.520;13.464;2023-03-17T00:03:00;17.95;;;4.95;;
37753;SDS011;23596;52.520;13.464;2023-03-17T00:05:30;23.23;;;4.43;;
37753;SDS011;23596;52.520;13.464;2023-03-17T00:08:03;22.05;;;5.25;;
37753;SDS011;23596;52.520;13.464;2023-03-17T00:10:36;20.55;;;4.82;;
37753;SDS011;23596;52.520;13.464;2023-03-17T00:13:03;17.67;;;4.78;;
37753;SDS011;23596;52.520;13.464;2023-03-17T00:15:29;16.48;;;4.55;;
37753;SDS011;23596;52.520;13.464;2023-03-17T00:17:55;18.00;;;4.80;;
37753;SDS011;23596;52.520;13.464;2023-03-17T00:20:25;21.58;;;4.60;;
37753;SDS011;23596;52.520;13.464;2023-03-17T00:22:54;24.80;;;5.07;;
37753;SDS011;23596;52.520;13.464;2023-03-17T00:25:27;13.95;;;4.82;;
37753;SDS011;23596;52.520;13.464;2023-03-17T00:27:56;15.75;;;5.00;;
37753;SDS011;23596;52.520;13.464;2023-03-17T00:30:24;15.80;;;5.47;;
37753;SDS011;23596;52.520;13.464;2023-03-17T00:32:51;13.30;;;4.43;;
37753;SDS011;23596;52.520;13.464;2023-03-17T00:35:23;11.73;;;4.20;;
37753;SDS011;23596;52.520;13.464;2023-03-17T00:37:51;14.38;;;5.07;;
37753;SDS011;23596;52.520;13.464;2023-03-17T00:40:25;11.75;;;4.43;;
37753;SDS011;23596;52.520;13.464;2023-03-17T00:42:55;12.50;;;5.32;;
37753;SDS011;23596;52.520;13.464;2023-03-17T00:45:24;16.65;;;4.50;;
37753;SDS011;23596;52.520;13.464;2023-03-17T00:47:52;15.18;;;4.47;;
37753;SDS011;23596;52.520;13.464;2023-03-17T00:50:21;19.00;;;5.22;;
37753;SDS011;23596;52.520;13.464;2023-03-17T00:52:50;15.13;;;4.40;;
37753;SDS011;23596;52.520;13.464;2023-03-17T00:55:20;14.35;;;5.05;;
37753;SDS011;23596;52.520;13.464;2023-03-17T00:57:47;11.80;;;4.65;;
37753;SDS011;23596;52.520;13.464;2023-03-17T01:00:24;15.48;;;4.68;;
37753;SDS011;23596;52.520;13.464;2023-03-17T01:02:52;10.27;;;4.88;;
37753;SDS011;23596;52.520;13.464;2023-03-17T01:05:20;16.75;;;5.05;;
37753;SDS011;23596;52.520;13.464;2023-03-17T01:07:47;16.90;;;4.85;;
37753;SDS011;23596;52.520;13.464;2023-03-17T01:10:21;16.33;;;5.03;;
37753;SDS011;23596;52.520;13.464;2023-03-17T01:12:50;17.52;;;4.72;;
37753;SDS011;23596;52.520;13.464;2023-03-17T01:15:17;15.25;;;5.32;;
37753;SDS011;23596;52.520;13.464;2023-03-17T01:17:44;14.18;;;4.65;;
37753;SDS011;23596;52.520;13.464;2023-03-17T01:20:13;16.30;;;5.38;;
37753;SDS011;23596;52.520;13.464;2023-03-17T01:22:45;18.48;;;5.82;;
37753;SDS011;23596;52.520;13.464;2023-03-17T01:25:11;8.93;;;4.60;;
37753;SDS011;23596;52.520;13.464;2023-03-17T01:27:37;17.73;;;5.03;;
37753;SDS011;23596;52.520;13.464;2023-03-17T01:30:04;16.70;;;4.88;;
37753;SDS011;23596;52.520;13.464;2023-03-17T01:34:56;17.92;;;4.95;;
37753;SDS011;23596;52.520;13.464;2023-03-17T01:37:21;17.87;;;5.47;;
37753;SDS011;23596;52.520;13.464;2023-03-17T01:39:47;11.33;;;4.63;;
37753;SDS011;23596;52.520;13.464;2023-03-17T01:42:12;14.70;;;5.13;;
37753;SDS011;23596;52.520;13.464;2023-03-17T01:44:57;23.20;;;5.17;;
37753;SDS011;23596;52.520;13.464;2023-03-17T01:47:25;15.98;;;5.15;;
37753;SDS011;23596;52.520;13.464;2023-03-17T01:49:54;16.35;;;5.65;;
37753;SDS011;23596;52.520;13.464;2023-03-17T01:52:21;15.75;;;5.82;;
37753;SDS011;23596;52.520;13.464;2023-03-17T02:00:01;19.35;;;5.20;;
37753;SDS011;23596;52.520;13.464;2023-03-17T02:02:44;20.42;;;5.65;;
37753;SDS011;23596;52.520;13.464;2023-03-17T02:05:14;20.63;;;5.75;;
37753;SDS011;23596;52.520;13.464;2023-03-17T02:07:42;24.50;;;5.75;;
37753;SDS011;23596;52.520;13.464;2023-03-17T02:10:09;22.17;;;6.18;;
37753;SDS011;23596;52.520;13.464;2023-03-17T02:12:36;21.20;;;6.03;;
37753;SDS011;23596;52.520;13.464;2023-03-17T02:15:05;19.48;;;5.43;;
37753;SDS011;23596;52.520;13.464;2023-03-17T02:20:10;21.52;;;5.57;;
37753;SDS011;23596;52.520;13.464;2023-03-17T02:22:49;14.82;;;5.82;;
37753;SDS011;23596;52.520;13.464;2023-03-17T02:25:19;15.57;;;5.93;;
37753;SDS011;23596;52.520;13.464;2023-03-17T02:27:47;18.17;;;6.18;;
37753;SDS011;23596;52.520;13.464;2023-03-17T02:30:16;20.33;;;6.00;;
37753;SDS011;23596;52.520;13.464;2023-03-17T02:32:44;15.50;;;6.28;;
37753;SDS011;23596;52.520;13.464;2023-03-17T02:35:10;17.70;;;6.57;;
37753;SDS011;23596;52.520;13.464;2023-03-17T02:37:36;15.60;;;6.60;;
37753;SDS011;23596;52.520;13.464;2023-03-17T02:40:02;20.20;;;6.07;;
37753;SDS011;23596;52.520;13.464;2023-03-17T02:42:29;24.65;;;6.78;;
37753;SDS011;23596;52.520;13.464;2023-03-17T02:44:56;24.83;;;6.30;;
37753;SDS011;23596;52.520;13.464;2023-03-17T02:47:22;22.57;;;6.50;;
37753;SDS011;23596;52.520;13.464;2023-03-17T02:49:48;22.10;;;7.40;;
37753;SDS011;23596;52.520;13.464;2023-03-17T02:52:14;14.87;;;6.00;;
37753;SDS011;23596;52.520;13.464;2023-03-17T02:54:39;20.13;;;6.43;;
37753;SDS011;23596;52.520;13.464;2023-03-17T02:57:05;15.07;;;5.73;;
37753;SDS011;23596;52.520;13.464;2023-03-17T02:59:32;21.08;;;6.38;;
37753;SDS011;23596;52.520;13.464;2023-03-17T03:01:58;17.67;;;6.57;;
37753;SDS011;23596;52.520;13.464;2023-03-17T03:04:25;26.27;;;6.70;;
37753;SDS011;23596;52.520;13.464;2023-03-17T03:06:51;22.40;;;6.78;;
37753;SDS011;23596;52.520;13.464;2023-03-17T03:09:17;17.13;;;6.85;;
37753;SDS011;23596;52.520;13.464;2023-03-17T03:11:44;21.98;;;6.63;;
37753;SDS011;23596;52.520;13.464;2023-03-17T03:14:10;18.83;;;5.75;;
37753;SDS011;23596;52.520;13.464;2023-03-17T03:16:35;17.20;;;5.60;;
37753;SDS011;23596;52.520;13.464;2023-03-17T03:19:02;16.42;;;5.88;;
37753;SDS011;23596;52.520;13.464;2023-03-17T03:21:27;21.10;;;5.83;;
37753;SDS011;23596;52.520;13.464;2023-03-17T03:23:53;15.50;;;6.37;;
37753;SDS011;23596;52.520;13.464;2023-03-17T03:26:19;23.10;;;6.40;;
37753;SDS011;23596;52.520;13.464;2023-03-17T03:28:45;17.07;;;6.43;;
37753;SDS011;23596;52.520;13.464;2023-03-17T03:31:11;21.23;;;6.40;;
37753;SDS011;23596;52.520;13.464;2023-03-17T03:33:37;16.85;;;5.32;;
37753;SDS011;23596;52.520;13.464;2023-03-17T03:36:03;16.02;;;5.53;;
37753;SDS011;23596;52.520;13.464;2023-03-17T03:38:30;15.57;;;5.75;;
37753;SDS011;23596;52.520;13.464;2023-03-17T03:40:56;20.93;;;6.37;;
37753;SDS011;23596;52.520;13.464;2023-03-17T03:43:21;21.63;;;6.07;;
37753;SDS011;23596;52.520;13.464;2023-03-17T03:45:47;11.33;;;5.03;;
37753;SDS011;23596;52.520;13.464;2023-03-17T03:48:13;14.07;;;6.00;;
37753;SDS011;23596;52.520;13.464;2023-03-17T03:50:38;20.70;;;6.30;;
37753;SDS011;23596;52.520;13.464;2023-03-17T03:53:04;16.80;;;5.27;;
37753;SDS011;23596;52.520;13.464;2023-03-17T03:55:30;16.77;;;5.77;;
37753;SDS011;23596;52.520;13.464;2023-03-17T03:57:55;17.80;;;5.13;;
37753;SDS011;23596;52.520;13.464;2023-03-17T04:00:21;23.63;;;6.67;;
37753;SDS011;23596;52.520;13.464;2023-03-17T04:02:47;16.53;;;6.10;;
37753;SDS011;23596;52.520;13.464;2023-03-17T04:05:13;25.10;;;6.13;;
37753;SDS011;23596;52.520;13.464;2023-03-17T04:07:39;18.63;;;5.75;;
37753;SDS011;23596;52.520;13.464;2023-03-17T04:10:07;14.98;;;5.95;;
37753;SDS011;23596;52.520;13.464;2023-03-17T04:12:34;15.95;;;5.85;;
37753;SDS011;23596;52.520;13.464;2023-03-17T04:14:59;18.03;;;6.33;;
37753;SDS011;23596;52.520;13.464;2023-03-17T04:17:26;17.17;;;5.55;;
37753;SDS011;23596;52.520;13.464;2023-03-17T04:19:52;19.20;;;6.10;;
37753;SDS011;23596;52.520;13.464;2023-03-17T04:22:17;21.87;;;7.70;;
37753;SDS011;23596;52.520;13.464;2023-03-17T04:24:43;16.37;;;5.83;;
37753;SDS011;23596;52.520;13.464;2023-03-17T04:27:10;25.70;;;6.43;;
37753;SDS011;23596;52.520;13.464;2023-03-17T04:29:36;13.90;;;5.47;;
37753;SDS011;23596;52.520;13.464;2023-03-17T04:32:02;15.90;;;5.40;;
37753;SDS011;23596;52.520;13.464;2023-03-17T04:34:28;18.60;;;5.85;;
37753;SDS011;23596;52.520;13.464;2023-03-17T04:36:53;14.60;;;5.63;;
37753;SDS011;23596;52.520;13.464;2023-03-17T04:39:19;15.77;;;5.80;;
37753;SDS011;23596;52.520;13.464;2023-03-17T04:41:45;16.10;;;5.20;;
37753;SDS011;23596;52.520;13.464;2023-03-17T04:44:10;18.87;;;5.33;;
37753;SDS011;23596;52.520;13.464;2023-03-17T04:46:36;17.13;;;6.53;;
37753;SDS011;23596;52.520;13.464;2023-03-17T04:49:02;18.03;;;6.40;;
37753;SDS011;23596;52.520;13.464;2023-03-17T04:51:28;20.25;;;6.07;;
37753;SDS011;23596;52.520;13.464;2023-03-17T04:53:54;20.13;;;6.40;;
37753;SDS011;23596;52.520;13.464;2023-03-17T04:56:20;19.97;;;5.97;;
37753;SDS011;23596;52.520;13.464;2023-03-17T04:58:45;19.73;;;6.50;;
37753;SDS011;23596;52.520;13.464;2023-03-17T05:01:11;21.70;;;5.97;;
37753;SDS011;23596;52.520;13.464;2023-03-17T05:03:37;15.73;;;5.30;;
37753;SDS011;23596;52.520;13.464;2023-03-17T05:06:03;19.07;;;5.53;;
37753;SDS011;23596;52.520;13.464;2023-03-17T05:08:30;22.45;;;5.93;;
37753;SDS011;23596;52.520;13.464;2023-03-17T05:10:55;17.57;;;6.07;;
37753;SDS011;23596;52.520;13.464;2023-03-17T05:13:22;15.82;;;5.90;;
37753;SDS011;23596;52.520;13.464;2023-03-17T05:15:49;16.80;;;5.57;;
37753;SDS011;23596;52.520;13.464;2023-03-17T05:18:16;13.65;;;4.95;;
37753;SDS011;23596;52.520;13.464;2023-03-17T05:20:43;15.52;;;5.63;;
37753;SDS011;23596;52.520;13.464;2023-03-17T05:23:09;17.50;;;6.10;;
37753;SDS011;23596;52.520;13.464;2023-03-17T05:25:35;14.53;;;5.27;;
37753;SDS011;23596;52.520;13.464;2023-03-17T05:28:01;16.83;;;5.67;;
37753;SDS011;23596;52.520;13.464;2023-03-17T05:30:27;12.53;;;4.73;;
37753;SDS011;23596;52.520;13.464;2023-03-17T05:32:52;17.37;;;5.73;;
37753;SDS011;23596;52.520;13.464;2023-03-17T05:35:18;13.13;;;5.33;;
37753;SDS011;23596;52.520;13.464;2023-03-17T05:37:44;16.50;;;6.00;;
37753;SDS011;23596;52.520;13.464;2023-03-17T05:40:11;13.65;;;5.65;;
37753;SDS011;23596;52.520;13.464;2023-03-17T05:42:38;11.52;;;5.50;;
37753;SDS011;23596;52.520;13.464;2023-03-17T05:45:05;16.25;;;5.43;;
37753;SDS011;23596;52.520;13.464;2023-03-17T05:47:32;22.38;;;5.72;;
37753;SDS011;23596;52.520;13.464;2023-03-17T05:49:58;14.43;;;5.57;;
37753;SDS011;23596;52.520;13.464;2023-03-17T05:54:50;16.90;;;5.68;;
37753;SDS011;23596;52.520;13.464;2023-03-17T05:57:16;16.83;;;6.05;;
37753;SDS011;23596;52.520;13.464;2023-03-17T05:59:42;14.90;;;5.70;;
37753;SDS011;23596;52.520;13.464;2023-03-17T06:02:08;11.53;;;5.63;;
37753;SDS011;23596;52.520;13.464;2023-03-17T06:04:35;13.40;;;5.20;;
37753;SDS011;23596;52.520;13.464;2023-03-17T06:07:01;22.73;;;5.67;;
37753;SDS011;23596;52.520;13.464;2023-03-17T06:09:26;16.67;;;5.53;;
37753;SDS011;23596;52.520;13.464;2023-03-17T06:11:52;15.40;;;5.73;;
37753;SDS011;23596;52.520;13.464;2023-03-17T06:14:17;18.57;;;5.80;;
37753;SDS011;23596;52.520;13.464;2023-03-17T06:16:43;12.97;;;5.37;;
37753;SDS011;23596;52.520;13.464;2023-03-17T06:19:09;19.30;;;5.40;;
37753;SDS011;23596;52.520;13.464;2023-03-17T06:21:35;19.60;;;5.22;;
37753;SDS011;23596;52.520;13.464;2023-03-17T06:24:01;15.40;;;5.27;;
37753;SDS011;23596;52.520;13.464;2023-03-17T06:26:26;22.00;;;5.33;;
37753;SDS011;23596;52.520;13.464;2023-03-17T06:28:52;17.33;;;5.23;;
37753;SDS011;23596;52.520;13.464;2023-03-17T06:31:18;20.23;;;6.03;;
37753;SDS011;23596;52.520;13.464;2023-03-17T06:33:44;14.53;;;5.43;;
37753;SDS011;23596;52.520;13.464;2023-03-17T06:36:09;19.33;;;5.87;;
37753;SDS011;23596;52.520;13.464;2023-03-17T06:38:35;18.70;;;5.03;;
37753;SDS011;23596;52.520;13.464;2023-03-17T06:41:01;15.00;;;5.73;;
37753;SDS011;23596;52.520;13.464;2023-03-17T06:43:27;21.85;;;5.40;;
37753;SDS011;23596;52.520;13.464;2023-03-17T06:45:53;15.87;;;5.20;;
37753;SDS011;23596;52.520;13.464;2023-03-17T06:48:19;19.07;;;5.83;;
37753;SDS011;23596;52.520;13.464;2023-03-17T06:50:44;18.33;;;5.70;;
37753;SDS011;23596;52.520;13.464;2023-03-17T06:53:14;19.00;;;5.88;;
37753;SDS011;23596;52.520;13.464;2023-03-17T06:55:40;15.27;;;5.43;;
37753;SDS011;23596;52.520;13.464;2023-03-17T06:58:06;19.67;;;5.40;;
37753;SDS011;23596;52.520;13.464;2023-03-17T07:00:33;16.35;;;5.90;;
37753;SDS011;23596;52.520;13.464;2023-03-17T07:02:59;19.07;;;5.73;;
37753;SDS011;23596;52.520;13.464;2023-03-17T07:05:24;14.73;;;5.27;;
37753;SDS011;23596;52.520;13.464;2023-03-17T07:07:50;16.93;;;5.47;;
37753;SDS011;23596;52.520;13.464;2023-03-17T07:10:17;22.33;;;6.00;;
37753;SDS011;23596;52.520;13.464;2023-03-17T07:12:43;18.60;;;5.47;;
37753;SDS011;23596;52.520;13.464;2023-03-17T07:15:09;13.63;;;4.78;;
37753;SDS011;23596;52.520;13.464;2023-03-17T07:17:37;14.38;;;5.75;;
37753;SDS011;23596;52.520;13.464;2023-03-17T07:20:03;21.73;;;6.60;;
37753;SDS011;23596;52.520;13.464;2023-03-17T07:22:30;16.08;;;5.43;;
37753;SDS011;23596;52.520;13.464;2023-03-17T07:24:56;15.77;;;5.53;;
37753;SDS011;23596;52.520;13.464;2023-03-17T07:27:22;15.07;;;5.30;;
37753;SDS011;23596;52.520;13.464;2023-03-17T07:29:49;13.27;;;5.00;;
37753;SDS011;23596;52.520;13.464;2023-03-17T07:32:15;16.00;;;5.75;;
37753;SDS011;23596;52.520;13.464;2023-03-17T07:34:41;22.93;;;6.37;;
37753;SDS011;23596;52.520;13.464;2023-03-17T07:37:07;14.87;;;5.73;;
37753;SDS011;23596;52.520;13.464;2023-03-17T07:41:59;12.45;;;5.18;;
37753;SDS011;23596;52.520;13.464;2023-03-17T07:44:25;14.50;;;5.20;;
37753;SDS011;23596;52.520;13.464;2023-03-17T07:46:51;14.93;;;5.10;;
37753;SDS011;23596;52.520;13.464;2023-03-17T07:49:17;17.05;;;5.57;;
37753;SDS011;23596;52.520;13.464;2023-03-17T07:51:43;20.93;;;5.17;;
37753;SDS011;23596;52.520;13.464;2023-03-17T07:54:10;21.97;;;7.10;;
37753;SDS011;23596;52.520;13.464;2023-03-17T07:59:02;15.23;;;5.38;;
37753;SDS011;23596;52.520;13.464;2023-03-17T08:01:29;22.35;;;5.43;;
37753;SDS011;23596;52.520;13.464;2023-03-17T08:03:55;20.63;;;5.97;;
37753;SDS011;23596;52.520;13.464;2023-03-17T08:06:21;17.10;;;5.80;;
37753;SDS011;23596;52.520;13.464;2023-03-17T08:08:49;13.63;;;5.43;;
37753;SDS011;23596;52.520;13.464;2023-03-17T08:11:15;18.98;;;5.93;;
37753;SDS011;23596;52.520;13.464;2023-03-17T08:13:41;13.48;;;5.63;;
37753;SDS011;23596;52.520;13.464;2023-03-17T08:16:07;17.40;;;5.70;;
37753;SDS011;23596;52.520;13.464;2023-03-17T08:18:33;20.80;;;5.80;;
37753;SDS011;23596;52.520;13.464;2023-03-17T08:20:59;14.17;;;5.50;;
37753;SDS011;23596;52.520;13.464;2023-03-17T08:23:24;13.93;;;5.43;;
37753;SDS011;23596;52.520;13.464;2023-03-17T08:25:54;15.17;;;5.07;;
37753;SDS011;23596;52.520;13.464;2023-03-17T08:28:24;18.88;;;5.80;;
37753;SDS011;23596;52.520;13.464;2023-03-17T08:30:51;16.23;;;5.57;;
37753;SDS011;23596;52.520;13.464;2023-03-17T08:33:16;18.30;;;6.33;;
37753;SDS011;23596;52.520;13.464;2023-03-17T08:35:42;12.87;;;5.30;;
37753;SDS011;23596;52.520;13.464;2023-03-17T08:38:08;11.20;;;4.83;;
37753;SDS011;23596;52.520;13.464;2023-03-17T08:40:34;18.77;;;5.50;;
37753;SDS011;23596;52.520;13.464;2023-03-17T08:43:00;28.73;;;5.47;;
37753;SDS011;23596;52.520;13.464;2023-03-17T08:45:26;13.77;;;5.30;;
37753;SDS011;23596;52.520;13.464;2023-03-17T08:47:52;11.27;;;4.90;;
37753;SDS011;23596;52.520;13.464;2023-03-17T08:50:19;18.33;;;5.50;;
37753;SDS011;23596;52.520;13.464;2023-03-17T08:52:47;12.40;;;5.15;;
37753;SDS011;23596;52.520;13.464;2023-03-17T08:55:15;18.70;;;5.10;;
37753;SDS011;23596;52.520;13.464;2023-03-17T08:57:41;23.20;;;4.90;;
37753;SDS011;23596;52.520;13.464;2023-03-17T09:00:08;12.68;;;4.65;;
37753;SDS011;23596;52.520;13.464;2023-03-17T09:02:36;15.90;;;5.72;;
37753;SDS011;23596;52.520;13.464;2023-03-17T09:05:03;16.38;;;5.07;;
37753;SDS011;23596;52.520;13.464;2023-03-17T09:07:30;16.33;;;4.85;;
37753;SDS011;23596;52.520;13.464;2023-03-17T09:09:57;19.98;;;4.85;;
37753;SDS011;23596;52.520;13.464;2023-03-17T09:12:23;16.95;;;5.05;;
37753;SDS011;23596;52.520;13.464;2023-03-17T09:14:49;16.30;;;5.30;;
37753;SDS011;23596;52.520;13.464;2023-03-17T09:17:15;14.77;;;5.82;;
37753;SDS011;23596;52.520;13.464;2023-03-17T09:19:40;16.70;;;5.37;;
37753;SDS011;23596;52.520;13.464;2023-03-17T09:22:09;13.02;;;4.63;;
37753;SDS011;23596;52.520;13.464;2023-03-17T09:24:38;13.65;;;4.70;;
37753;SDS011;23596;52.520;13.464;2023-03-17T09:27:03;20.60;;;4.97;;
37753;SDS011;23596;52.520;13.464;2023-03-17T09:29:29;15.43;;;4.93;;
37753;SDS011;23596;52.520;13.464;2023-03-17T09:31:55;16.50;;;4.97;;
37753;SDS011;23596;52.520;13.464;2023-03-17T09:34:21;11.73;;;4.70;;
37753;SDS011;23596;52.520;13.464;2023-03-17T09:36:49;10.18;;;4.75;;
37753;SDS011;23596;52.520;13.464;2023-03-17T09:39:14;11.47;;;4.93;;
37753;SDS011;23596;52.520;13.464;2023-03-17T09:41:52;20.90;;;5.03;;
37753;SDS011;23596;52.520;13.464;2023-03-17T09:44:33;14.02;;;4.35;;
37753;SDS011;23596;52.520;13.464;2023-03-17T09:47:51;12.15;;;4.90;;
37753;SDS011;23596;52.520;13.464;2023-03-17T09:53:30;11.70;;;4.90;;
37753;SDS011;23596;52.520;13.464;2023-03-17T09:56:20;12.20;;;4.88;;
37753;SDS011;23596;52.520;13.464;2023-03-17T09:58:50;12.95;;;4.47;;
37753;SDS011;23596;52.520;13.464;2023-03-17T10:01:19;10.80;;;4.82;;
37753;SDS011;23596;52.520;13.464;2023-03-17T10:03:46;14.38;;;4.90;;
37753;SDS011;23596;52.520;13.464;2023-03-17T10:06:31;13.75;;;4.68;;
37753;SDS011;23596;52.520;13.464;2023-03-17T10:19:41;19.95;;;5.15;;
37753;SDS011;23596;52.520;13.464;2023-03-17T10:22:27;16.27;;;4.65;;
37753;SDS011;23596;52.520;13.464;2023-03-17T10:25:20;21.95;;;4.30;;
37753;SDS011;23596;52.520;13.464;2023-03-17T10:27:52;16.98;;;4.60;;
37753;SDS011;23596;52.520;13.464;2023-03-17T10:30:37;8.60;;;4.68;;
37753;SDS011;23596;52.520;13.464;2023-03-17T10:33:04;9.73;;;4.30;;
37753;SDS011;23596;52.520;13.464;2023-03-17T10:35:33;9.73;;;4.20;;
37753;SDS011;23596;52.520;13.464;2023-03-17T10:38:21;11.60;;;4.68;;
37753;SDS011;23596;52.520;13.464;2023-03-17T10:40:55;12.70;;;4.40;;
37753;SDS011;23596;52.520;13.464;2023-03-17T10:43:24;14.48;;;4.32;;
37753;SDS011;23596;52.520;13.464;2023-03-17T10:46:01;12.35;;;4.30;;
37753;SDS011;23596;52.520;13.464;2023-03-17T10:48:29;9.70;;;3.45;;
37753;SDS011;23596;52.520;13.464;2023-03-17T10:51:00;15.82;;;4.47;;
37753;SDS011;23596;52.520;13.464;2023-03-17T10:53:36;11.13;;;3.83;;
37753;SDS011;23596;52.520;13.464;2023-03-17T10:56:07;17.13;;;4.00;;
37753;SDS011;23596;52.520;13.464;2023-03-17T11:01:14;8.13;;;3.65;;
37753;SDS011;23596;52.520;13.464;2023-03-17T11:03:44;8.73;;;3.67;;
37753;SDS011;23596;52.520;13.464;2023-03-17T11:06:12;14.52;;;4.50;;
37753;SDS011;23596;52.520;13.464;2023-03-17T11:08:47;15.02;;;4.00;;
37753;SDS011;23596;52.520;13.464;2023-03-17T11:13:47;11.02;;;4.00;;
37753;SDS011;23596;52.520;13.464;2023-03-17T11:18:46;14.60;;;4.53;;
37753;SDS011;23596;52.520;13.464;2023-03-17T11:21:28;13.27;;;4.40;;
37753;SDS011;23596;52.520;13.464;2023-03-17T11:29:10;12.43;;;4.27;;
37753;SDS011;23596;52.520;13.464;2023-03-17T12:04:27;10.95;;;3.53;;
37753;SDS011;23596;52.520;13.464;2023-03-17T12:07:50;10.77;;;3.60;;
37753;SDS011;23596;52.520;13.464;2023-03-17T12:10:20;11.35;;;3.92;;
37753;SDS011;23596;52.520;13.464;2023-03-17T12:12:54;11.13;;;3.65;;
37753;SDS011;23596;52.520;13.464;2023-03-17T12:15:26;8.57;;;3.47;;
37753;SDS011;23596;52.520;13.464;2023-03-17T12:18:03;11.23;;;3.55;;
37753;SDS011;23596;52.520;13.464;2023-03-17T12:26:34;12.38;;;3.20;;
37753;SDS011;23596;52.520;13.464;2023-03-17T12:29:16;16.48;;;3.92;;
37753;SDS011;23596;52.520;13.464;2023-03-17T12:32:06;10.10;;;3.10;;
37753;SDS011;23596;52.520;13.464;2023-03-17T12:35:20;11.60;;;4.07;;
37753;SDS011;23596;52.520;13.464;2023-03-17T12:37:53;13.15;;;3.55;;
37753;SDS011;23596;52.520;13.464;2023-03-17T12:40:23;12.63;;;3.20;;
37753;SDS011;23596;52.520;13.464;2023-03-17T12:55:43;39.92;;;6.32;;
37753;SDS011;23596;52.520;13.464;2023-03-17T13:00:54;8.23;;;2.92;;
37753;SDS011;23596;52.520;13.464;2023-03-17T13:03:46;9.65;;;3.08;;
37753;SDS011;23596;52.520;13.464;2023-03-17T13:06:30;11.02;;;3.35;;
37753;SDS011;23596;52.520;13.464;2023-03-17T13:12:33;8.23;;;2.67;;
37753;SDS011;23596;52.520;13.464;2023-03-17T13:18:19;12.63;;;3.20;;
37753;SDS011;23596;52.520;13.464;2023-03-17T13:20:39;11.15;;;3.63;;
37753;SDS011;23596;52.520;13.464;2023-03-17T13:26:10;17.23;;;4.78;;
37753;SDS011;23596;52.520;13.464;2023-03-17T13:31:10;14.80;;;4.17;;
37753;SDS011;23596;52.520;13.464;2023-03-17T13:34:13;13.48;;;3.67;;
37753;SDS011;23596;52.520;13.464;2023-03-17T13:36:54;9.50;;;3.00;;
37753;SDS011;23596;52.520;13.464;2023-03-17T13:42:04;5.05;;;2.55;;
37753;SDS011;23596;52.520;13.464;2023-03-17T13:47:44;7.07;;;3.40;;
37753;SDS011;23596;52.520;13.464;2023-03-17T13:50:14;6.45;;;2.80;;
37753;SDS011;23596;52.520;13.464;2023-03-17T13:52:56;6.28;;;2.40;;
37753;SDS011;23596;52.520;13.464;2023-03-17T13:55:36;11.73;;;2.63;;
37753;SDS011;23596;52.520;13.464;2023-03-17T14:00:32;8.40;;;2.57;;
37753;SDS011;23596;52.520;13.464;2023-03-17T14:03:25;8.30;;;2.95;;
37753;SDS011;23596;52.520;13.464;2023-03-17T14:05:54;7.22;;;2.33;;
37753;SDS011;23596;52.520;13.464;2023-03-17T14:11:01;11.27;;;2.80;;
37753;SDS011;23596;52.520;13.464;2023-03-17T14:16:41;6.03;;;2.47;;
37753;SDS011;23596;52.520;13.464;2023-03-17T14:19:09;11.20;;;2.97;;
37753;SDS011;23596;52.520;13.464;2023-03-17T14:21:47;9.48;;;2.38;;
37753;SDS011;23596;52.520;13.464;2023-03-17T14:27:10;5.85;;;2.50;;
37753;SDS011;23596;52.520;13.464;2023-03-17T14:29:38;6.82;;;2.83;;
37753;SDS011;23596;52.520;13.464;2023-03-17T14:32:11;8.53;;;2.83;;
37753;SDS011;23596;52.520;13.464;2023-03-17T14:34:58;6.72;;;3.42;;
37753;SDS011;23596;52.520;13.464;2023-03-17T14:37:24;12.38;;;3.28;;
37753;SDS011;23596;52.520;13.464;2023-03-17T14:39:54;9.23;;;3.78;;
37753;SDS011;23596;52.520;13.464;2023-03-17T14:42:29;9.85;;;3.35;;
37753;SDS011;23596;52.520;13.464;2023-03-17T14:45:00;10.95;;;3.85;;
37753;SDS011;23596;52.520;13.464;2023-03-17T14:47:27;15.55;;;4.22;;
37753;SDS011;23596;52.520;13.464;2023-03-17T14:49:55;11.23;;;3.70;;
37753;SDS011;23596;52.520;13.464;2023-03-17T14:52:25;7.20;;;3.27;;
37753;SDS011;23596;52.520;13.464;2023-03-17T14:54:53;13.32;;;3.55;;
37753;SDS011;23596;52.520;13.464;2023-03-17T14:57:25;14.65;;;3.65;;
37753;SDS011;23596;52.520;13.464;2023-03-17T15:00:02;14.25;;;3.00;;
37753;SDS011;23596;52.520;13.464;2023-03-17T15:02:51;14.90;;;3.28;;
37753;SDS011;23596;52.520;13.464;2023-03-17T15:07:50;6.85;;;2.58;;
37753;SDS011;23596;52.520;13.464;2023-03-17T15:10:26;7.75;;;3.00;;
37753;SDS011;23596;52.520;13.464;2023-03-17T15:13:01;16.38;;;4.30;;
37753;SDS011;23596;52.520;13.464;2023-03-17T15:15:33;22.30;;;3.50;;
37753;SDS011;23596;52.520;13.464;2023-03-17T15:18:12;13.02;;;3.15;;
37753;SDS011;23596;52.520;13.464;2023-03-17T15:20:40;10.32;;;2.95;;
37753;SDS011;23596;52.520;13.464;2023-03-17T15:23:14;9.70;;;3.53;;
37753;SDS011;23596;52.520;13.464;2023-03-17T15:25:49;9.07;;;3.08;;
37753;SDS011;23596;52.520;13.464;2023-03-17T15:28:20;12.45;;;3.83;;
37753;SDS011;23596;52.520;13.464;2023-03-17T15:30:51;13.02;;;3.38;;
37753;SDS011;23596;52.520;13.464;2023-03-17T15:33:22;16.35;;;3.45;;
37753;SDS011;23596;52.520;13.464;2023-03-17T15:35:57;12.38;;;2.95;;
37753;SDS011;23596;52.520;13.464;2023-03-17T15:38:26;19.20;;;3.35;;
37753;SDS011;23596;52.520;13.464;2023-03-17T15:40:52;6.70;;;2.50;;
37753;SDS011;23596;52.520;13.464;2023-03-17T15:43:19;13.23;;;3.63;;
37753;SDS011;23596;52.520;13.464;2023-03-17T15:45:57;13.82;;;3.50;;
37753;SDS011;23596;52.520;13.464;2023-03-17T15:48:26;12.70;;;2.60;;
37753;SDS011;23596;52.520;13.464;2023-03-17T15:50:55;20.58;;;3.50;;
37753;SDS011;23596;52.520;13.464;2023-03-17T15:53:24;9.77;;;2.95;;
37753;SDS011;23596;52.520;13.464;2023-03-17T15:55:50;6.35;;;3.03;;
37753;SDS011;23596;52.520;13.464;2023-03-17T15:58:15;13.20;;;3.17;;
37753;SDS011;23596;52.520;13.464;2023-03-17T16:00:41;5.77;;;2.47;;
37753;SDS011;23596;52.520;13.464;2023-03-17T16:03:13;15.52;;;3.38;;
37753;SDS011;23596;52.520;13.464;2023-03-17T16:08:25;6.38;;;2.50;;
37753;SDS011;23596;52.520;13.464;2023-03-17T16:10:51;8.17;;;3.17;;
37753;SDS011;23596;52.520;13.464;2023-03-17T16:13:17;14.45;;;3.10;;
37753;SDS011;23596;52.520;13.464;2023-03-17T16:15:45;6.53;;;2.78;;
37753;SDS011;23596;52.520;13.464;2023-03-17T16:18:21;8.57;;;2.97;;
37753;SDS011;23596;52.520;13.464;2023-03-17T16:20:56;11.30;;;2.78;;
37753;SDS011;23596;52.520;13.464;2023-03-17T16:23:23;9.40;;;3.00;;
37753;SDS011;23596;52.520;13.464;2023-03-17T16:25:52;10.93;;;3.00;;
37753;SDS011;23596;52.520;13.464;2023-03-17T16:28:19;8.57;;;3.53;;
37753;SDS011;23596;52.520;13.464;2023-03-17T16:30:55;9.45;;;3.15;;
37753;SDS011;23596;52.520;13.464;2023-03-17T16:33:30;9.30;;;2.95;;
37753;SDS011;23596;52.520;13.464;2023-03-17T16:36:01;9.80;;;2.78;;
37753;SDS011;23596;52.520;13.464;2023-03-17T16:38:28;11.43;;;3.43;;
37753;SDS011;23596;52.520;13.464;2023-03-17T16:41:00;6.03;;;2.65;;
37753;SDS011;23596;52.520;13.464;2023-03-17T16:43:31;15.30;;;3.05;;
37753;SDS011;23596;52.520;13.464;2023-03-17T16:46:01;9.57;;;3.75;;
37753;SDS011;23596;52.520;13.464;2023-03-17T16:48:28;13.75;;;3.78;;
37753;SDS011;23596;52.520;13.464;2023-03-17T16:50:55;10.73;;;3.75;;